• Join FlightAware (Why Join?)
  • Login
  • US Flag 
12:50AM EDT


 

Airport Tracker/Info


-or-


 

Live Flight TrackerFlight Track Log ✈ ELJ309 ✈ 02-May-2013 ✈ KLUK - MYAM / MHH

Flight Track Log - Related Links

Times and Time Zones

All times are in EDT time to prevent confusion due to time zone crossing. See the ELJ309 flight status page for this flight to view local times or setup timezone preferences in your user account.

Time Position Orientation Groundspeed Altitude Reporting Facility
EDT Latitude Longitude Course Direction KTS MPH feet Rate Location/Type
06:57AM 39.0833 -84.4167 164° South 145 167 1,100  Level Cincinnati TRACON
06:58AM 39.0333 -84.4500 207° Southwest 236 272 2,500 1,680 Climbing Cincinnati TRACON
06:59AM 38.9833 -84.4833 207° Southwest 245 282 4,700 2,340 Climbing Cincinnati TRACON
07:01AM 38.8617 -84.4825 180° South 258 297 9,000 2,460 Climbing Indianapolis Center
07:02AM 38.7806 -84.4772 177° South 287 330 11,600 2,400 Climbing Indianapolis Center
07:03AM 38.6084 -84.5576 164° South  Level FlightAware Approximate
07:03AM 38.6961 -84.4747 179° South 298 343 13,900  Level Indianapolis Center
07:04AM 38.6089 -84.4583 172° South 309 356 16,100 2,160 Climbing Indianapolis Center
07:05AM 38.5097 -84.4333 169° South 311 358 18,400 2,100 Climbing Indianapolis Center
07:06AM 38.4208 -84.4164 172° South 317 365 20,400 1,920 Climbing Indianapolis Center
07:07AM 38.3283 -84.3986 171° South 329 379 22,400 1,920 Climbing Indianapolis Center
07:08AM 38.2344 -84.3797 171° South 338 389 24,400 1,860 Climbing Indianapolis Center
07:09AM 38.1419 -84.3600 170° South 338 389 26,200 1,440 Climbing Indianapolis Center
07:10AM 38.0469 -84.3394 170° South 343 395 27,400 1,080 Climbing Indianapolis Center
07:11AM 37.9464 -84.3183 171° South 362 417 28,400 1,020 Climbing Indianapolis Center
07:12AM 37.8414 -84.2956 170° South 380 437 29,500 1,080 Climbing Indianapolis Center
07:13AM 37.7356 -84.2742 171° South 385 443 30,600 1,080 Climbing Indianapolis Center
07:14AM 37.6281 -84.2511 170° South 390 449 31,800 1,140 Climbing Indianapolis Center
07:15AM 37.5231 -84.2261 169° South 385 443 33,000 1,200 Climbing Indianapolis Center
07:16AM 37.3975 -84.2017 171° South 388 447 34,300 1,200 Climbing Indianapolis Center
07:17AM 37.2908 -84.1800 171° South 389 448 35,500 1,080 Climbing Indianapolis Center
07:18AM 37.1867 -84.1581 170° South 382 440 36,600 960 Climbing Indianapolis Center
07:19AM 37.0828 -84.1369 171° South 380 437 37,500 780 Climbing Indianapolis Center
07:20AM 36.9794 -84.1147 170° South 379 436 38,300 660 Climbing Indianapolis Center
07:21AM 36.8742 -84.0928 171° South 381 438 38,900 480 Climbing Indianapolis Center
07:22AM 36.7678 -84.0711 171° South 385 443 39,300 420 Climbing Indianapolis Center
07:23AM 36.6583 -84.0486 171° South 394 453 39,800 480 Climbing Indianapolis Center
07:24AM 36.5839 -84.0336 171° South 390 449 40,100 420 Climbing Atlanta Center
07:25AM 36.4753 -84.0103 170° South 390 449 40,500 420 Climbing Atlanta Center
07:26AM 36.3692 -83.9897 171° South 390 449 41,000 240 Climbing Atlanta Center
07:27AM 36.2564 -83.9692 172° South 395 455 41,000  Level Atlanta Center
07:28AM 36.1458 -83.9461 170° South 395 455 41,000  Level Atlanta Center
07:29AM 36.0311 -83.9231 171° South 413 475 41,000  Level Atlanta Center
07:30AM 35.9206 -83.9003 171° South 413 475 41,000  Level Atlanta Center
07:31AM 35.8100 -83.8519 160° South 413 475 41,000  Level Atlanta Center
07:32AM 35.7014 -83.8036 160° South 418 481 41,000  Level Atlanta Center
07:33AM 35.5822 -83.7503 160° South 423 487 41,000  Level Atlanta Center
07:34AM 35.4736 -83.6997 159° South 423 487 41,000  Level Atlanta Center
07:35AM 35.3631 -83.6492 160° South 423 487 41,000  Level Atlanta Center
07:36AM 35.2544 -83.6014 160° South 423 487 41,000  Level Atlanta Center
07:37AM 35.1478 -83.5511 159° South 423 487 41,000  Level Atlanta Center
07:38AM 35.0369 -83.5061 162° South 423 487 41,000  Level Atlanta Center
07:39AM 34.9283 -83.4586 160° South 423 487 41,000  Level Atlanta Center
07:40AM 34.8172 -83.4061 159° South 423 487 41,000  Level Atlanta Center
07:41AM 34.7086 -83.3592 160° South 423 487 41,000  Level Atlanta Center
07:42AM 34.5997 -83.3069 158° South 428 493 41,000  Level Atlanta Center
07:43AM 34.4889 -83.2575 160° South 428 493 41,000  Level Atlanta Center
07:44AM 34.3822 -83.2081 159° South 428 493 41,000  Level Atlanta Center
07:45AM 34.2733 -83.1589 160° South 428 493 41,000  Level Atlanta Center
07:46AM 34.1622 -83.1125 161° South 423 487 41,000  Level Atlanta Center
07:47AM 34.0658 -83.0708 160° South 423 487 41,000  Level Atlanta Center
07:48AM 33.9550 -83.0244 161° South 423 487 41,000  Level Atlanta Center
07:49AM 33.8461 -82.9758 160° South 413 475 41,000  Level Atlanta Center
07:50AM 33.7392 -82.9272 159° South 414 476 41,000  Level Atlanta Center
07:51AM 33.6303 -82.8836 162° South 414 476 41,000  Level Atlanta Center
07:52AM 33.5192 -82.8353 160° South 414 476 41,000 60 Level Atlanta Center
07:53AM 33.4017 -82.7797 158° South 419 482 41,200 300 Climbing Atlanta Center
07:54AM 33.2969 -82.7439 164° South 419 482 41,600 360 Climbing Atlanta Center
07:55AM 33.1942 -82.6983 160° South 419 482 42,000 300 Climbing Atlanta Center
07:56AM 33.0850 -82.6506 160° South 414 476 42,300 300 Climbing Atlanta Center
07:57AM 32.9781 -82.6050 160° South 409 471 42,700 300 Climbing Atlanta Center
07:58AM 32.8647 -82.5550 160° South 410 472 43,000 120 Climbing Atlanta Center
07:59AM 32.7600 -82.5122 161° South 405 466 43,000  Level Atlanta Center
08:01AM 32.5894 -82.4389 160° South 410 472 43,000  Level Jacksonville Center
08:02AM 32.4828 -82.3925 160° South 410 472 43,000  Level Jacksonville Center
08:03AM 32.3761 -82.3464 160° South 410 472 43,000  Level Jacksonville Center
08:04AM 32.2592 -82.3006 162° South 410 472 43,000  Level Jacksonville Center
08:05AM 32.1483 -82.2547 161° South 414 476 43,000  Level Jacksonville Center
08:06AM 32.0500 -82.2136 160° South 414 476 43,000  Level Jacksonville Center
08:07AM 31.9306 -82.1656 161° South 414 476 43,000  Level Jacksonville Center
08:08AM 31.8322 -82.1222 159° South 420 483 43,000  Level Jacksonville Center
08:09AM 31.7108 -82.0697 160° South 420 483 43,000  Level Jacksonville Center
08:10AM 31.5978 -82.0292 163° South 425 489 43,000  Level Jacksonville Center
08:11AM 31.5014 -81.9861 159° South 425 489 43,000  Level Jacksonville Center
08:12AM 31.3800 -81.9361 161° South 425 489 43,000  Level Jacksonville Center
08:13AM 31.2794 -81.8958 161° South 425 489 43,000  Level Jacksonville Center
08:14AM 31.1683 -81.8508 161° South 425 489 43,000  Level Jacksonville Center
08:15AM 31.0575 -81.8061 161° South 425 489 43,000  Level Jacksonville Center
08:16AM 30.9442 -81.7589 160° South 425 489 43,000  Level Jacksonville Center
08:17AM 30.8331 -81.7119 160° South 425 489 43,000  Level Jacksonville Center
08:18AM 30.7200 -81.6675 161° South 425 489 43,000  Level Jacksonville Center
08:19AM 30.6089 -81.6206 160° South 425 489 43,000  Level Jacksonville Center
08:20AM 30.4956 -81.5739 160° South 430 495 43,000  Level Jacksonville Center
08:21AM 30.3803 -81.5272 161° South 430 495 43,000  Level Jacksonville Center
08:22AM 30.2669 -81.4808 161° South 430 495 43,000 -60 Level Jacksonville Center
08:23AM 30.1517 -81.4392 163° South 430 495 42,900  Descending Jacksonville Center
08:24AM 30.0406 -81.3978 162° South 430 495 43,000  Climbing Jacksonville Center
08:25AM 29.9314 -81.3514 160° South 424 488 43,000  Level Jacksonville Center
08:26AM 29.8283 -81.2742 147° Southeast 424 488 43,000  Level Jacksonville Center
08:27AM 29.7292 -81.1944 145° Southeast 429 494 43,000  Level Jacksonville Center
08:28AM 29.6319 -81.1150 145° Southeast 434 499 43,000 -60 Level Jacksonville Center
08:29AM 29.5306 -81.0333 145° Southeast 439 505 42,900  Descending Jacksonville Center
08:30AM 29.4333 -80.9517 144° Southeast 439 505 43,000  Climbing Jacksonville Center
08:31AM 29.3319 -80.8678 144° Southeast 439 505 43,000  Level Jacksonville Center
08:32AM 29.2303 -80.7867 145° Southeast 439 505 43,000  Level Jacksonville Center
08:32AM 29.1561 -80.7297 146° Southeast 444 511 43,000  Level Miami Center
08:33AM 29.0539 -80.6478 145° Southeast 451 519 43,000  Level Miami Center
08:34AM 28.9497 -80.5658 145° Southeast 451 519 43,000  Level Miami Center
08:35AM 28.8561 -80.4703 138° Southeast 451 519 43,000  Level Miami Center
08:36AM 28.7756 -80.3517 128° Southeast 466 536 43,000  Level Miami Center
08:37AM 28.6950 -80.2356 128° Southeast 477 549 43,000  Level Miami Center
08:38AM 28.6244 -80.1272 127° Southeast 477 549 43,000  Level Miami Center
08:39AM 28.5417 -80.0089 129° Southeast 471 542 43,000  Level Miami Center
08:40AM 28.4606 -79.8908 128° Southeast 476 548 43,000  Level Miami Center
08:41AM 28.3817 -79.7731 127° Southeast 476 548 43,000  Level Miami Center
08:42AM 28.2986 -79.6531 128° Southeast 481 554 43,000  Level Miami Center
08:43AM 28.2172 -79.5308 127° Southeast 481 554 43,000 -240 Level Miami Center
08:44AM 28.1358 -79.4136 128° Southeast 481 554 42,600 -600 Descending Miami Center
08:45AM 28.0525 -79.2917 128° Southeast 481 554 41,800 -900 Descending Miami Center
08:46AM 27.9711 -79.1700 127° Southeast 481 554 40,900 -840 Descending Miami Center
08:47AM 27.8872 -79.0486 128° Southeast 486 559 40,200 -1,200 Descending Miami Center
08:48AM 27.8056 -78.9272 127° Southeast 494 568 38,500 -1,920 Descending Miami Center
08:49AM 27.7258 -78.8133 128° Southeast 478 550 36,400 -2,220 Descending Miami Center
08:50AM 27.6436 -78.6969 129° Southeast 440 506 34,100 -2,040 Descending Miami Center
08:51AM 27.5781 -78.6069 129° Southeast 430 495 32,400 -1,920 Descending Miami Center
08:52AM 27.5083 -78.5003 126° Southeast 430 495 30,300 -2,100 Descending Miami Center
08:53AM 27.4322 -78.3964 130° Southeast 425 489 28,300 -2,100 Descending Miami Center
08:54AM 27.3603 -78.2856 126° Southeast 432 497 26,200 -2,100 Descending Miami Center
08:55AM 27.2714 -78.1697 131° Southeast 445 512 24,100 -2,100 Descending Miami Center
08:56AM 27.1972 -78.0475 124° Southeast 454 522 22,000 -2,100 Descending Miami Center
08:57AM 27.1228 -77.9511 131° Southeast 446 513 19,900 -1,740 Descending Miami Center
08:58AM 27.0525 -77.8547 129° Southeast 424 488 18,600 -1,200 Descending Miami Center
08:59AM 26.9883 -77.7656 129° Southeast 393 452 17,500 -1,080 Descending Miami Center
09:00AM 26.9219 -77.6672 127° Southeast 393 452 16,500 -1,080 Descending Miami Center
09:01AM 26.8578 -77.5736 128° Southeast 381 438 15,400 -1,140 Descending Miami Center
09:02AM 26.7914 -77.4847 130° Southeast 375 432 14,300 -1,200 Descending Miami Center
09:03AM 26.7331 -77.4078 130° Southeast 375 432 13,100 -1,680 Descending Miami Center
09:04AM 26.6769 -77.3239 127° Southeast 359 413 11,000 -2,100 Descending Miami Center
09:05AM 26.6272 -77.2539 128° Southeast 325 374 9,000 -1,500 Descending Miami Center
09:06AM 26.5772 -77.1886 131° Southeast 293 337 8,000 -1,020 Descending Miami Center